sensor_id;sensor_type;location;lat;lon;timestamp;pressure;altitude;pressure_sealevel;temperature;humidity
60874;BME280;46715;40.642;-7.920;2023-05-10T00:00:14;96980.19;;;15.78;76.63
60874;BME280;46715;40.642;-7.920;2023-05-10T00:02:16;96978.75;;;15.66;76.96
60874;BME280;46715;40.642;-7.920;2023-05-10T00:04:17;96980.94;;;15.59;76.62
60874;BME280;46715;40.642;-7.920;2023-05-10T00:06:17;96984.28;;;15.65;76.18
60874;BME280;46715;40.642;-7.920;2023-05-10T00:08:19;96977.31;;;15.55;76.30
60874;BME280;46715;40.642;-7.920;2023-05-10T00:10:21;96980.41;;;15.57;75.86
60874;BME280;46715;40.642;-7.920;2023-05-10T00:12:21;96985.25;;;15.50;76.33
60874;BME280;46715;40.642;-7.920;2023-05-10T00:14:22;96985.69;;;15.57;76.05
60874;BME280;46715;40.642;-7.920;2023-05-10T00:16:24;96978.03;;;15.61;75.96
60874;BME280;46715;40.642;-7.920;2023-05-10T00:18:25;96976.00;;;15.52;75.60
60874;BME280;46715;40.642;-7.920;2023-05-10T00:20:27;96971.19;;;15.60;75.36
60874;BME280;46715;40.642;-7.920;2023-05-10T00:22:27;96968.41;;;15.51;75.76
60874;BME280;46715;40.642;-7.920;2023-05-10T00:24:28;96967.69;;;15.45;76.28
60874;BME280;46715;40.642;-7.920;2023-05-10T00:26:29;96957.81;;;15.37;76.24
60874;BME280;46715;40.642;-7.920;2023-05-10T00:28:30;96960.19;;;15.33;76.38
60874;BME280;46715;40.642;-7.920;2023-05-10T00:30:32;96969.31;;;15.41;76.06
60874;BME280;46715;40.642;-7.920;2023-05-10T00:32:33;96956.94;;;15.42;75.97
60874;BME280;46715;40.642;-7.920;2023-05-10T00:34:35;96952.22;;;15.44;75.86
60874;BME280;46715;40.642;-7.920;2023-05-10T00:36:36;96960.47;;;15.32;76.02
60874;BME280;46715;40.642;-7.920;2023-05-10T00:38:37;96961.28;;;15.32;76.13
60874;BME280;46715;40.642;-7.920;2023-05-10T00:40:37;96960.53;;;15.27;75.76
60874;BME280;46715;40.642;-7.920;2023-05-10T00:42:42;96949.41;;;15.11;76.69
60874;BME280;46715;40.642;-7.920;2023-05-10T00:44:43;96939.19;;;15.09;76.78
60874;BME280;46715;40.642;-7.920;2023-05-10T00:46:44;96948.06;;;15.13;76.97
60874;BME280;46715;40.642;-7.920;2023-05-10T00:48:46;96943.38;;;15.10;77.00
60874;BME280;46715;40.642;-7.920;2023-05-10T00:50:48;96950.59;;;14.99;77.47
60874;BME280;46715;40.642;-7.920;2023-05-10T00:52:49;96946.81;;;15.06;76.73
60874;BME280;46715;40.642;-7.920;2023-05-10T00:54:51;96953.50;;;14.98;76.99
60874;BME280;46715;40.642;-7.920;2023-05-10T00:56:53;96951.19;;;14.91;77.39
60874;BME280;46715;40.642;-7.920;2023-05-10T00:58:55;96950.53;;;14.75;77.85
60874;BME280;46715;40.642;-7.920;2023-05-10T01:00:56;96956.75;;;14.85;77.62
60874;BME280;46715;40.642;-7.920;2023-05-10T01:02:58;96947.09;;;14.80;77.67
60874;BME280;46715;40.642;-7.920;2023-05-10T01:04:59;96943.66;;;14.79;77.90
60874;BME280;46715;40.642;-7.920;2023-05-10T01:07:00;96936.94;;;14.68;78.30
60874;BME280;46715;40.642;-7.920;2023-05-10T01:09:01;96949.22;;;14.73;78.30
60874;BME280;46715;40.642;-7.920;2023-05-10T01:11:02;96948.03;;;14.89;78.02
60874;BME280;46715;40.642;-7.920;2023-05-10T01:13:03;96935.56;;;14.76;78.43
60874;BME280;46715;40.642;-7.920;2023-05-10T01:15:05;96942.75;;;14.65;79.27
60874;BME280;46715;40.642;-7.920;2023-05-10T01:17:08;96940.78;;;14.46;80.21
60874;BME280;46715;40.642;-7.920;2023-05-10T01:19:19;96934.16;;;14.54;80.09
60874;BME280;46715;40.642;-7.920;2023-05-10T01:24:09;96938.47;;;14.40;80.87
60874;BME280;46715;40.642;-7.920;2023-05-10T01:37:46;96920.53;;;14.18;82.15
60874;BME280;46715;40.642;-7.920;2023-05-10T01:39:56;96914.56;;;14.07;82.81
60874;BME280;46715;40.642;-7.920;2023-05-10T01:42:10;96908.56;;;14.06;83.05
60874;BME280;46715;40.642;-7.920;2023-05-10T01:44:29;96913.53;;;14.08;82.91
60874;BME280;46715;40.642;-7.920;2023-05-10T01:46:37;96916.94;;;14.03;82.82
60874;BME280;46715;40.642;-7.920;2023-05-10T01:48:46;96917.75;;;14.04;82.65
60874;BME280;46715;40.642;-7.920;2023-05-10T01:50:50;96911.19;;;14.01;83.01
60874;BME280;46715;40.642;-7.920;2023-05-10T01:52:54;96921.50;;;13.87;82.60
60874;BME280;46715;40.642;-7.920;2023-05-10T01:55:01;96918.09;;;13.87;82.79
60874;BME280;46715;40.642;-7.920;2023-05-10T01:57:05;96917.78;;;13.98;82.01
60874;BME280;46715;40.642;-7.920;2023-05-10T01:59:13;96920.94;;;13.95;81.92
60874;BME280;46715;40.642;-7.920;2023-05-10T02:01:17;96923.03;;;13.93;82.08
60874;BME280;46715;40.642;-7.920;2023-05-10T02:03:23;96918.91;;;13.82;82.43
60874;BME280;46715;40.642;-7.920;2023-05-10T02:05:25;96911.31;;;13.80;82.07
60874;BME280;46715;40.642;-7.920;2023-05-10T02:07:29;96911.84;;;13.83;82.37
60874;BME280;46715;40.642;-7.920;2023-05-10T02:09:34;96908.22;;;13.73;82.55
60874;BME280;46715;40.642;-7.920;2023-05-10T02:11:38;96901.16;;;13.69;82.38
60874;BME280;46715;40.642;-7.920;2023-05-10T02:13:40;96910.03;;;13.73;82.39
60874;BME280;46715;40.642;-7.920;2023-05-10T02:15:42;96902.72;;;13.70;82.54
60874;BME280;46715;40.642;-7.920;2023-05-10T02:17:46;96896.72;;;13.69;82.40
60874;BME280;46715;40.642;-7.920;2023-05-10T02:19:47;96904.22;;;13.81;81.95
60874;BME280;46715;40.642;-7.920;2023-05-10T02:21:51;96905.63;;;13.68;82.61
60874;BME280;46715;40.642;-7.920;2023-05-10T02:23:53;96902.97;;;13.73;82.18
60874;BME280;46715;40.642;-7.920;2023-05-10T02:25:56;96907.47;;;13.68;82.42
60874;BME280;46715;40.642;-7.920;2023-05-10T02:27:59;96901.47;;;13.62;83.04
60874;BME280;46715;40.642;-7.920;2023-05-10T02:30:02;96896.72;;;13.69;82.46
60874;BME280;46715;40.642;-7.920;2023-05-10T02:32:04;96903.03;;;13.63;82.96
60874;BME280;46715;40.642;-7.920;2023-05-10T02:34:08;96900.69;;;13.61;83.18
60874;BME280;46715;40.642;-7.920;2023-05-10T02:36:11;96896.50;;;13.60;83.22
60874;BME280;46715;40.642;-7.920;2023-05-10T02:38:14;96899.91;;;13.61;83.13
60874;BME280;46715;40.642;-7.920;2023-05-10T02:40:16;96901.97;;;13.64;82.98
60874;BME280;46715;40.642;-7.920;2023-05-10T02:42:26;96903.78;;;13.69;82.73
60874;BME280;46715;40.642;-7.920;2023-05-10T02:44:27;96899.06;;;13.71;82.59
60874;BME280;46715;40.642;-7.920;2023-05-10T02:46:30;96899.88;;;13.66;82.87
60874;BME280;46715;40.642;-7.920;2023-05-10T02:48:32;96906.25;;;13.50;83.75
60874;BME280;46715;40.642;-7.920;2023-05-10T02:50:33;96915.16;;;13.43;84.27
60874;BME280;46715;40.642;-7.920;2023-05-10T02:52:45;96903.38;;;13.41;84.82
60874;BME280;46715;40.642;-7.920;2023-05-10T02:54:50;96901.34;;;13.27;85.53
60874;BME280;46715;40.642;-7.920;2023-05-10T02:57:00;96908.91;;;13.39;85.67
60874;BME280;46715;40.642;-7.920;2023-05-10T02:59:04;96895.28;;;13.42;85.42
60874;BME280;46715;40.642;-7.920;2023-05-10T03:01:06;96907.03;;;13.45;84.99
60874;BME280;46715;40.642;-7.920;2023-05-10T03:03:09;96905.75;;;13.42;84.88
60874;BME280;46715;40.642;-7.920;2023-05-10T03:05:10;96903.38;;;13.41;85.17
60874;BME280;46715;40.642;-7.920;2023-05-10T03:07:11;96906.56;;;13.27;85.78
60874;BME280;46715;40.642;-7.920;2023-05-10T03:09:12;96897.66;;;13.28;85.92
60874;BME280;46715;40.642;-7.920;2023-05-10T03:11:39;96896.09;;;13.27;85.86
60874;BME280;46715;40.642;-7.920;2023-05-10T03:13:49;96899.75;;;13.37;84.78
60874;BME280;46715;40.642;-7.920;2023-05-10T03:16:15;96890.59;;;13.29;85.05
60874;BME280;46715;40.642;-7.920;2023-05-10T03:18:29;96896.88;;;13.28;85.44
60874;BME280;46715;40.642;-7.920;2023-05-10T03:20:45;96895.84;;;13.24;86.45
60874;BME280;46715;40.642;-7.920;2023-05-10T03:22:53;96903.69;;;13.29;85.87
60874;BME280;46715;40.642;-7.920;2023-05-10T03:24:56;96908.91;;;13.34;85.82
60874;BME280;46715;40.642;-7.920;2023-05-10T03:27:01;96903.16;;;13.32;86.05
60874;BME280;46715;40.642;-7.920;2023-05-10T03:29:06;96897.16;;;13.26;86.49
60874;BME280;46715;40.642;-7.920;2023-05-10T03:31:12;96899.78;;;13.21;86.72
60874;BME280;46715;40.642;-7.920;2023-05-10T03:33:15;96901.06;;;13.29;86.73
60874;BME280;46715;40.642;-7.920;2023-05-10T03:35:19;96902.34;;;13.42;85.88
60874;BME280;46715;40.642;-7.920;2023-05-10T03:37:20;96908.41;;;13.37;85.36
60874;BME280;46715;40.642;-7.920;2023-05-10T03:39:21;96908.16;;;13.28;85.36
60874;BME280;46715;40.642;-7.920;2023-05-10T03:41:27;96906.84;;;13.21;86.24
60874;BME280;46715;40.642;-7.920;2023-05-10T03:43:28;96896.91;;;13.18;86.45
60874;BME280;46715;40.642;-7.920;2023-05-10T03:45:29;96892.19;;;13.20;86.56
60874;BME280;46715;40.642;-7.920;2023-05-10T03:47:31;96899.25;;;13.24;86.48
60874;BME280;46715;40.642;-7.920;2023-05-10T03:49:34;96899.75;;;13.32;86.02
60874;BME280;46715;40.642;-7.920;2023-05-10T03:51:35;96900.31;;;13.18;86.39
60874;BME280;46715;40.642;-7.920;2023-05-10T03:53:38;96898.25;;;13.15;86.54
60874;BME280;46715;40.642;-7.920;2023-05-10T03:55:39;96893.56;;;13.07;87.61
60874;BME280;46715;40.642;-7.920;2023-05-10T03:57:39;96900.31;;;13.13;87.59
60874;BME280;46715;40.642;-7.920;2023-05-10T03:59:41;96901.13;;;13.13;87.78
60874;BME280;46715;40.642;-7.920;2023-05-10T04:01:42;96893.81;;;13.10;87.69
60874;BME280;46715;40.642;-7.920;2023-05-10T04:03:43;96888.59;;;13.00;88.60
60874;BME280;46715;40.642;-7.920;2023-05-10T04:05:46;96895.13;;;13.08;88.10
60874;BME280;46715;40.642;-7.920;2023-05-10T04:07:46;96891.91;;;13.21;87.39
60874;BME280;46715;40.642;-7.920;2023-05-10T04:09:50;96889.59;;;13.15;87.33
60874;BME280;46715;40.642;-7.920;2023-05-10T04:11:51;96882.06;;;12.98;88.03
60874;BME280;46715;40.642;-7.920;2023-05-10T04:13:52;96882.63;;;12.84;88.13
60874;BME280;46715;40.642;-7.920;2023-05-10T04:15:53;96884.47;;;12.68;89.63
60874;BME280;46715;40.642;-7.920;2023-05-10T04:17:54;96882.66;;;12.64;89.96
60874;BME280;46715;40.642;-7.920;2023-05-10T04:19:55;96884.25;;;12.59;89.88
60874;BME280;46715;40.642;-7.920;2023-05-10T04:21:57;96886.84;;;12.49;90.87
60874;BME280;46715;40.642;-7.920;2023-05-10T04:23:58;96887.38;;;12.56;91.23
60874;BME280;46715;40.642;-7.920;2023-05-10T04:26:00;96892.59;;;12.67;90.64
60874;BME280;46715;40.642;-7.920;2023-05-10T04:28:01;96895.75;;;12.64;90.72
60874;BME280;46715;40.642;-7.920;2023-05-10T04:30:02;96896.28;;;12.55;90.94
60874;BME280;46715;40.642;-7.920;2023-05-10T04:32:03;96897.06;;;12.56;90.54
60874;BME280;46715;40.642;-7.920;2023-05-10T04:34:04;96893.13;;;12.53;90.66
60874;BME280;46715;40.642;-7.920;2023-05-10T04:36:05;96896.50;;;12.59;89.73
60874;BME280;46715;40.642;-7.920;2023-05-10T04:38:07;96895.22;;;12.61;89.70
60874;BME280;46715;40.642;-7.920;2023-05-10T04:40:09;96894.69;;;12.59;89.31
60874;BME280;46715;40.642;-7.920;2023-05-10T04:42:10;96886.59;;;12.56;89.22
60874;BME280;46715;40.642;-7.920;2023-05-10T04:44:12;96891.31;;;12.54;88.81
60874;BME280;46715;40.642;-7.920;2023-05-10T04:46:13;96890.00;;;12.46;89.15
60874;BME280;46715;40.642;-7.920;2023-05-10T04:48:13;96899.16;;;12.43;89.17
60874;BME280;46715;40.642;-7.920;2023-05-10T04:50:14;96898.09;;;12.39;89.46
60874;BME280;46715;40.642;-7.920;2023-05-10T04:52:15;96901.25;;;12.31;89.26
60874;BME280;46715;40.642;-7.920;2023-05-10T04:54:18;96891.06;;;12.24;89.06
60874;BME280;46715;40.642;-7.920;2023-05-10T04:56:19;96888.97;;;12.16;88.94
60874;BME280;46715;40.642;-7.920;2023-05-10T04:58:21;96885.84;;;12.19;88.60
60874;BME280;46715;40.642;-7.920;2023-05-10T05:00:23;96891.84;;;12.20;87.39
60874;BME280;46715;40.642;-7.920;2023-05-10T05:02:24;96884.00;;;12.20;87.86
60874;BME280;46715;40.642;-7.920;2023-05-10T05:04:24;96887.13;;;12.32;86.59
60874;BME280;46715;40.642;-7.920;2023-05-10T05:06:27;96881.41;;;12.30;86.98
60874;BME280;46715;40.642;-7.920;2023-05-10T05:08:27;96879.53;;;12.25;87.17
60874;BME280;46715;40.642;-7.920;2023-05-10T05:10:28;96880.06;;;12.07;88.08
60874;BME280;46715;40.642;-7.920;2023-05-10T05:12:29;96888.72;;;12.02;88.15
60874;BME280;46715;40.642;-7.920;2023-05-10T05:14:30;96887.66;;;11.98;88.27
60874;BME280;46715;40.642;-7.920;2023-05-10T05:16:31;96896.00;;;11.95;88.44
60874;BME280;46715;40.642;-7.920;2023-05-10T05:18:33;96888.69;;;11.97;88.01
60874;BME280;46715;40.642;-7.920;2023-05-10T05:20:34;96893.16;;;11.97;87.18
60874;BME280;46715;40.642;-7.920;2023-05-10T05:22:38;96904.03;;;11.78;87.75
60874;BME280;46715;40.642;-7.920;2023-05-10T05:24:39;96907.72;;;11.87;85.68
60874;BME280;46715;40.642;-7.920;2023-05-10T05:26:41;96905.63;;;11.89;84.51
60874;BME280;46715;40.642;-7.920;2023-05-10T05:28:42;96905.38;;;11.86;84.15
60874;BME280;46715;40.642;-7.920;2023-05-10T05:30:44;96911.06;;;11.67;83.53
60874;BME280;46715;40.642;-7.920;2023-05-10T05:32:44;96916.84;;;11.69;82.69
60874;BME280;46715;40.642;-7.920;2023-05-10T05:34:48;96907.13;;;11.54;82.37
60874;BME280;46715;40.642;-7.920;2023-05-10T05:36:49;96913.69;;;11.72;82.22
60874;BME280;46715;40.642;-7.920;2023-05-10T05:38:53;96903.72;;;11.54;82.28
60874;BME280;46715;40.642;-7.920;2023-05-10T05:40:53;96896.41;;;11.51;81.98
60874;BME280;46715;40.642;-7.920;2023-05-10T05:42:54;96891.44;;;11.44;82.43
60874;BME280;46715;40.642;-7.920;2023-05-10T05:44:57;96896.09;;;11.37;82.36
60874;BME280;46715;40.642;-7.920;2023-05-10T05:46:58;96902.63;;;11.39;82.24
60874;BME280;46715;40.642;-7.920;2023-05-10T05:48:58;96914.94;;;11.44;82.32
60874;BME280;46715;40.642;-7.920;2023-05-10T05:50:59;96914.47;;;11.63;81.38
60874;BME280;46715;40.642;-7.920;2023-05-10T05:53:00;96923.59;;;11.60;81.15
60874;BME280;46715;40.642;-7.920;2023-05-10T05:55:01;96925.97;;;11.77;80.20
60874;BME280;46715;40.642;-7.920;2023-05-10T05:57:03;96924.19;;;11.88;79.44
60874;BME280;46715;40.642;-7.920;2023-05-10T05:59:04;96928.66;;;11.92;79.52
60874;BME280;46715;40.642;-7.920;2023-05-10T06:01:05;96924.50;;;12.07;77.85
60874;BME280;46715;40.642;-7.920;2023-05-10T06:03:06;96933.91;;;12.13;77.33
60874;BME280;46715;40.642;-7.920;2023-05-10T06:05:07;96937.31;;;11.98;76.33
60874;BME280;46715;40.642;-7.920;2023-05-10T06:07:08;96933.13;;;12.07;76.51
60874;BME280;46715;40.642;-7.920;2023-05-10T06:09:09;96925.56;;;12.26;75.38
60874;BME280;46715;40.642;-7.920;2023-05-10T06:11:10;96929.50;;;12.34;74.56
60874;BME280;46715;40.642;-7.920;2023-05-10T06:13:11;96936.56;;;12.44;74.44
60874;BME280;46715;40.642;-7.920;2023-05-10T06:15:12;96940.72;;;12.45;73.98
60874;BME280;46715;40.642;-7.920;2023-05-10T06:17:13;96933.41;;;12.42;73.54
60874;BME280;46715;40.642;-7.920;2023-05-10T06:19:14;96922.16;;;12.57;73.12
60874;BME280;46715;40.642;-7.920;2023-05-10T06:21:14;96924.28;;;12.50;73.33
60874;BME280;46715;40.642;-7.920;2023-05-10T06:23:18;96930.03;;;12.62;72.82
60874;BME280;46715;40.642;-7.920;2023-05-10T06:25:19;96933.41;;;12.88;71.58
60874;BME280;46715;40.642;-7.920;2023-05-10T06:27:21;96919.78;;;12.91;71.57
60874;BME280;46715;40.642;-7.920;2023-05-10T06:29:22;96924.97;;;13.02;69.57
60874;BME280;46715;40.642;-7.920;2023-05-10T06:31:23;96927.03;;;13.10;68.82
60874;BME280;46715;40.642;-7.920;2023-05-10T06:33:23;96925.47;;;13.19;66.91
60874;BME280;46715;40.642;-7.920;2023-05-10T06:35:24;96911.06;;;13.11;64.69
60874;BME280;46715;40.642;-7.920;2023-05-10T06:37:26;96921.28;;;13.13;63.47
60874;BME280;46715;40.642;-7.920;2023-05-10T06:39:27;96924.34;;;13.41;62.30
60874;BME280;46715;40.642;-7.920;2023-05-10T06:41:29;96917.28;;;13.41;60.01
60874;BME280;46715;40.642;-7.920;2023-05-10T06:43:30;96915.75;;;13.25;60.09
60874;BME280;46715;40.642;-7.920;2023-05-10T06:45:30;96917.28;;;13.41;58.25
60874;BME280;46715;40.642;-7.920;2023-05-10T06:47:31;96906.75;;;13.52;57.62
60874;BME280;46715;40.642;-7.920;2023-05-10T06:49:32;96900.94;;;13.60;57.61
60874;BME280;46715;40.642;-7.920;2023-05-10T06:51:33;96902.44;;;13.76;58.00
60874;BME280;46715;40.642;-7.920;2023-05-10T06:53:34;96912.50;;;14.04;56.79
60874;BME280;46715;40.642;-7.920;2023-05-10T06:55:35;96917.09;;;14.22;58.42
60874;BME280;46715;40.642;-7.920;2023-05-10T06:57:36;96924.91;;;14.62;58.88
60874;BME280;46715;40.642;-7.920;2023-05-10T06:59:37;96921.91;;;15.03;54.45
60874;BME280;46715;40.642;-7.920;2023-05-10T07:01:38;96923.28;;;15.87;52.63
60874;BME280;46715;40.642;-7.920;2023-05-10T07:03:39;96915.94;;;16.22;53.66
60874;BME280;46715;40.642;-7.920;2023-05-10T07:05:40;96918.41;;;16.32;54.03
60874;BME280;46715;40.642;-7.920;2023-05-10T07:07:41;96918.72;;;16.78;52.60
60874;BME280;46715;40.642;-7.920;2023-05-10T07:09:42;96921.59;;;17.51;50.15
60874;BME280;46715;40.642;-7.920;2023-05-10T07:11:44;96917.22;;;18.19;48.03
60874;BME280;46715;40.642;-7.920;2023-05-10T07:13:46;96923.25;;;18.65;47.93
60874;BME280;46715;40.642;-7.920;2023-05-10T07:15:47;96922.31;;;17.93;45.79
60874;BME280;46715;40.642;-7.920;2023-05-10T07:17:48;96913.03;;;18.72;45.46
60874;BME280;46715;40.642;-7.920;2023-05-10T07:19:49;96900.28;;;20.25;41.67
60874;BME280;46715;40.642;-7.920;2023-05-10T07:21:50;96899.81;;;20.49;38.68
60874;BME280;46715;40.642;-7.920;2023-05-10T07:23:51;96889.75;;;19.90;39.45
60874;BME280;46715;40.642;-7.920;2023-05-10T07:25:52;96886.34;;;21.10;37.80
60874;BME280;46715;40.642;-7.920;2023-05-10T07:28:07;96894.53;;;20.97;36.81
60874;BME280;46715;40.642;-7.920;2023-05-10T07:30:08;96890.13;;;21.31;36.32
60874;BME280;46715;40.642;-7.920;2023-05-10T07:32:09;96884.47;;;22.71;33.92
60874;BME280;46715;40.642;-7.920;2023-05-10T07:34:11;96884.66;;;20.58;35.52
60874;BME280;46715;40.642;-7.920;2023-05-10T07:36:12;96888.16;;;20.89;35.80
60874;BME280;46715;40.642;-7.920;2023-05-10T07:38:13;96880.91;;;20.68;35.79
60874;BME280;46715;40.642;-7.920;2023-05-10T07:40:14;96888.63;;;21.93;34.30
60874;BME280;46715;40.642;-7.920;2023-05-10T07:42:15;96889.69;;;22.80;32.97
60874;BME280;46715;40.642;-7.920;2023-05-10T07:44:16;96885.16;;;23.05;31.84
60874;BME280;46715;40.642;-7.920;2023-05-10T07:46:19;96887.13;;;22.25;32.66
60874;BME280;46715;40.642;-7.920;2023-05-10T07:48:20;96884.03;;;22.81;32.79
60874;BME280;46715;40.642;-7.920;2023-05-10T07:50:21;96890.50;;;22.47;33.79
60874;BME280;46715;40.642;-7.920;2023-05-10T07:52:22;96887.50;;;21.60;34.53
60874;BME280;46715;40.642;-7.920;2023-05-10T07:54:23;96889.16;;;22.99;33.13
60874;BME280;46715;40.642;-7.920;2023-05-10T07:58:29;96900.59;;;23.77;31.80
60874;BME280;46715;40.642;-7.920;2023-05-10T08:00:30;96904.53;;;23.55;32.70
60874;BME280;46715;40.642;-7.920;2023-05-10T08:02:32;96898.59;;;24.43;31.86
60874;BME280;46715;40.642;-7.920;2023-05-10T08:04:34;96897.81;;;25.39;29.75
60874;BME280;46715;40.642;-7.920;2023-05-10T08:06:34;96908.03;;;25.52;29.63
60874;BME280;46715;40.642;-7.920;2023-05-10T08:08:35;96902.16;;;25.63;28.77
60874;BME280;46715;40.642;-7.920;2023-05-10T08:10:36;96897.16;;;24.62;29.52
60874;BME280;46715;40.642;-7.920;2023-05-10T08:12:38;96899.38;;;23.75;31.20
60874;BME280;46715;40.642;-7.920;2023-05-10T08:14:39;96893.16;;;24.40;30.24
60874;BME280;46715;40.642;-7.920;2023-05-10T08:16:40;96889.81;;;25.39;30.02
60874;BME280;46715;40.642;-7.920;2023-05-10T08:18:41;96892.25;;;23.79;30.66
60874;BME280;46715;40.642;-7.920;2023-05-10T08:20:42;96896.78;;;24.47;30.45
60874;BME280;46715;40.642;-7.920;2023-05-10T08:22:44;96895.59;;;25.41;29.29
60874;BME280;46715;40.642;-7.920;2023-05-10T08:24:46;96900.81;;;23.72;31.73
60874;BME280;46715;40.642;-7.920;2023-05-10T08:26:47;96899.41;;;22.30;33.33
60874;BME280;46715;40.642;-7.920;2023-05-10T08:28:48;96903.84;;;22.72;33.34
60874;BME280;46715;40.642;-7.920;2023-05-10T08:30:52;96906.47;;;21.71;34.30
60874;BME280;46715;40.642;-7.920;2023-05-10T08:32:52;96915.97;;;22.14;34.58
60874;BME280;46715;40.642;-7.920;2023-05-10T08:34:54;96913.75;;;21.53;34.57
60874;BME280;46715;40.642;-7.920;2023-05-10T08:36:56;96909.06;;;20.82;35.42
60874;BME280;46715;40.642;-7.920;2023-05-10T08:38:58;96911.25;;;21.99;34.17
60874;BME280;46715;40.642;-7.920;2023-05-10T08:40:59;96909.16;;;21.33;34.54
60874;BME280;46715;40.642;-7.920;2023-05-10T08:43:05;96897.78;;;23.08;32.90
60874;BME280;46715;40.642;-7.920;2023-05-10T08:45:08;96894.47;;;22.87;32.88
60874;BME280;46715;40.642;-7.920;2023-05-10T08:47:21;96896.09;;;23.65;31.29
60874;BME280;46715;40.642;-7.920;2023-05-10T08:49:23;96905.25;;;22.57;33.06
60874;BME280;46715;40.642;-7.920;2023-05-10T08:51:28;96903.00;;;21.20;35.23
60874;BME280;46715;40.642;-7.920;2023-05-10T08:53:33;96893.00;;;22.64;33.09
60874;BME280;46715;40.642;-7.920;2023-05-10T08:55:37;96892.34;;;23.05;32.65
60874;BME280;46715;40.642;-7.920;2023-05-10T08:57:39;96890.22;;;22.73;31.75
60874;BME280;46715;40.642;-7.920;2023-05-10T08:59:40;96888.53;;;22.23;32.65
60874;BME280;46715;40.642;-7.920;2023-05-10T09:01:42;96887.81;;;23.42;31.66
60874;BME280;46715;40.642;-7.920;2023-05-10T09:03:46;96888.91;;;23.54;31.12
60874;BME280;46715;40.642;-7.920;2023-05-10T09:05:48;96889.38;;;23.19;31.17
60874;BME280;46715;40.642;-7.920;2023-05-10T09:07:50;96888.13;;;24.66;29.89
60874;BME280;46715;40.642;-7.920;2023-05-10T09:09:52;96886.59;;;24.97;29.25
60874;BME280;46715;40.642;-7.920;2023-05-10T09:11:54;96887.56;;;24.89;28.92
60874;BME280;46715;40.642;-7.920;2023-05-10T09:13:55;96889.25;;;24.21;30.08
60874;BME280;46715;40.642;-7.920;2023-05-10T09:15:56;96885.66;;;24.90;29.46
60874;BME280;46715;40.642;-7.920;2023-05-10T09:17:58;96885.34;;;25.11;28.57
60874;BME280;46715;40.642;-7.920;2023-05-10T09:20:03;96877.56;;;26.12;27.80
60874;BME280;46715;40.642;-7.920;2023-05-10T09:22:08;96874.09;;;27.01;26.40
60874;BME280;46715;40.642;-7.920;2023-05-10T09:24:09;96881.72;;;26.10;27.30
60874;BME280;46715;40.642;-7.920;2023-05-10T09:26:09;96866.81;;;25.69;28.22
60874;BME280;46715;40.642;-7.920;2023-05-10T09:28:11;96868.69;;;26.51;27.53
60874;BME280;46715;40.642;-7.920;2023-05-10T09:30:17;96870.50;;;27.16;26.43
60874;BME280;46715;40.642;-7.920;2023-05-10T09:32:18;96876.94;;;26.19;27.70
60874;BME280;46715;40.642;-7.920;2023-05-10T09:34:20;96878.19;;;26.25;27.95
60874;BME280;46715;40.642;-7.920;2023-05-10T09:36:25;96889.94;;;25.10;29.49
60874;BME280;46715;40.642;-7.920;2023-05-10T09:38:27;96891.50;;;25.11;30.16
60874;BME280;46715;40.642;-7.920;2023-05-10T09:40:29;96894.78;;;25.56;28.75
60874;BME280;46715;40.642;-7.920;2023-05-10T09:42:31;96882.75;;;26.91;27.65
60874;BME280;46715;40.642;-7.920;2023-05-10T09:44:33;96885.94;;;27.00;27.00
60874;BME280;46715;40.642;-7.920;2023-05-10T09:46:35;96876.00;;;27.54;25.75
60874;BME280;46715;40.642;-7.920;2023-05-10T09:48:42;96882.16;;;27.54;25.92
60874;BME280;46715;40.642;-7.920;2023-05-10T09:50:43;96885.34;;;27.10;26.94
60874;BME280;46715;40.642;-7.920;2023-05-10T09:52:51;96878.81;;;27.65;25.77
60874;BME280;46715;40.642;-7.920;2023-05-10T09:54:53;96883.69;;;26.79;27.44
60874;BME280;46715;40.642;-7.920;2023-05-10T09:56:54;96876.44;;;25.03;28.60
60874;BME280;46715;40.642;-7.920;2023-05-10T09:59:02;96880.84;;;25.66;28.84
60874;BME280;46715;40.642;-7.920;2023-05-10T10:01:03;96873.69;;;25.90;27.39
60874;BME280;46715;40.642;-7.920;2023-05-10T10:03:05;96871.22;;;25.26;27.97
60874;BME280;46715;40.642;-7.920;2023-05-10T10:05:07;96874.38;;;25.48;27.24
60874;BME280;46715;40.642;-7.920;2023-05-10T10:07:08;96876.84;;;25.05;27.83
60874;BME280;46715;40.642;-7.920;2023-05-10T10:09:09;96873.00;;;26.13;27.31
60874;BME280;46715;40.642;-7.920;2023-05-10T10:11:11;96874.19;;;27.08;26.00
60874;BME280;46715;40.642;-7.920;2023-05-10T10:13:13;96875.88;;;27.43;25.78
60874;BME280;46715;40.642;-7.920;2023-05-10T10:15:14;96878.59;;;27.47;25.18
60874;BME280;46715;40.642;-7.920;2023-05-10T10:17:16;96879.44;;;27.85;24.75
60874;BME280;46715;40.642;-7.920;2023-05-10T10:19:20;96878.72;;;26.11;26.70
60874;BME280;46715;40.642;-7.920;2023-05-10T10:21:22;96875.75;;;27.09;26.08
60874;BME280;46715;40.642;-7.920;2023-05-10T10:23:23;96865.75;;;27.94;24.56
60874;BME280;46715;40.642;-7.920;2023-05-10T10:25:26;96864.03;;;28.50;24.28
60874;BME280;46715;40.642;-7.920;2023-05-10T10:28:18;96851.00;;;28.97;23.65
60874;BME280;46715;40.642;-7.920;2023-05-10T10:30:25;96848.53;;;28.73;23.82
60874;BME280;46715;40.642;-7.920;2023-05-10T10:32:41;96858.84;;;27.59;25.55
60874;BME280;46715;40.642;-7.920;2023-05-10T10:34:45;96866.00;;;26.05;26.72
60874;BME280;46715;40.642;-7.920;2023-05-10T10:36:46;96857.16;;;27.20;25.54
60874;BME280;46715;40.642;-7.920;2023-05-10T10:41:10;96858.72;;;26.48;26.69
60874;BME280;46715;40.642;-7.920;2023-05-10T10:43:27;96852.69;;;27.88;25.44
60874;BME280;46715;40.642;-7.920;2023-05-10T10:45:29;96852.38;;;27.06;26.85
60874;BME280;46715;40.642;-7.920;2023-05-10T10:47:30;96854.19;;;27.25;25.55
60874;BME280;46715;40.642;-7.920;2023-05-10T10:49:42;96864.31;;;26.00;27.51
60874;BME280;46715;40.642;-7.920;2023-05-10T10:54:27;96844.09;;;28.06;25.01
60874;BME280;46715;40.642;-7.920;2023-05-10T10:56:28;96849.97;;;26.97;26.49
60874;BME280;46715;40.642;-7.920;2023-05-10T10:58:30;96846.56;;;25.88;27.78
60874;BME280;46715;40.642;-7.920;2023-05-10T11:00:38;96855.91;;;24.27;30.29
60874;BME280;46715;40.642;-7.920;2023-05-10T11:02:45;96853.16;;;25.75;28.28